Terminal Aerodrome Forecast
Issued by NWS

Home | Current Version | Previous Version | Text Only | Print | Product List | Glossary On
Versions: 1 2 3 4 5 6 7 8 9 10 11 12 13 14 15 16 17 18 19 20 21 22 23
000
FTUS45 KTFX 192300
TAFHVR
TAF
KHVR 192328Z 2000/2024 09006KT P6SM BKN090
     FM200400 20011KT P6SM VCSH SCT030 OVC050
      TEMPO 2004/2007 -FZRA OVC030
     FM200700 24012KT P6SM -SHSNRA SCT020 OVC040
     FM201400 24012KT P6SM BKN070=

USA.gov is the U.S. government's official web portal to all federal, state and local government web resources and services.